sensor_id;sensor_type;location;lat;lon;timestamp;pressure;altitude;pressure_sealevel;temperature;humidity
16613;BME280;8419;52.358;9.752;2023-07-20T00:01:13;100615.00;;;25.53;37.61
16613;BME280;8419;52.358;9.752;2023-07-20T00:03:59;100616.00;;;25.41;37.92
16613;BME280;8419;52.358;9.752;2023-07-20T00:06:45;100620.00;;;25.33;38.09
16613;BME280;8419;52.358;9.752;2023-07-20T00:09:31;100620.00;;;25.32;38.25
16613;BME280;8419;52.358;9.752;2023-07-20T00:12:17;100618.00;;;25.35;38.28
16613;BME280;8419;52.358;9.752;2023-07-20T00:15:06;100618.00;;;25.35;38.30
16613;BME280;8419;52.358;9.752;2023-07-20T00:17:52;100617.00;;;25.35;38.39
16613;BME280;8419;52.358;9.752;2023-07-20T00:20:40;100607.00;;;25.39;38.35
16613;BME280;8419;52.358;9.752;2023-07-20T00:23:26;100601.00;;;25.27;38.65
16613;BME280;8419;52.358;9.752;2023-07-20T00:26:11;100602.00;;;25.26;38.65
16613;BME280;8419;52.358;9.752;2023-07-20T00:28:57;100597.00;;;25.18;38.78
16613;BME280;8419;52.358;9.752;2023-07-20T00:31:42;100596.00;;;25.14;38.82
16613;BME280;8419;52.358;9.752;2023-07-20T00:34:28;100599.00;;;25.10;38.90
16613;BME280;8419;52.358;9.752;2023-07-20T00:37:14;100598.00;;;25.01;39.05
16613;BME280;8419;52.358;9.752;2023-07-20T00:39:59;100602.00;;;24.99;39.08
16613;BME280;8419;52.358;9.752;2023-07-20T00:42:45;100605.00;;;24.89;39.30
16613;BME280;8419;52.358;9.752;2023-07-20T00:45:32;100601.00;;;24.87;39.28
16613;BME280;8419;52.358;9.752;2023-07-20T00:48:19;100601.00;;;24.86;39.33
16613;BME280;8419;52.358;9.752;2023-07-20T00:51:05;100597.00;;;24.81;39.41
16613;BME280;8419;52.358;9.752;2023-07-20T00:53:51;100597.00;;;24.81;39.42
16613;BME280;8419;52.358;9.752;2023-07-20T00:56:37;100588.00;;;24.80;39.43
16613;BME280;8419;52.358;9.752;2023-07-20T00:59:23;100594.00;;;24.81;39.40
16613;BME280;8419;52.358;9.752;2023-07-20T01:02:09;100591.00;;;24.78;39.42
16613;BME280;8419;52.358;9.752;2023-07-20T01:04:55;100589.00;;;24.70;39.57
16613;BME280;8419;52.358;9.752;2023-07-20T01:07:46;100585.00;;;24.70;39.53
16613;BME280;8419;52.358;9.752;2023-07-20T01:10:39;100583.00;;;24.69;39.53
16613;BME280;8419;52.358;9.752;2023-07-20T01:13:26;100592.00;;;24.67;39.60
16613;BME280;8419;52.358;9.752;2023-07-20T01:16:15;100597.00;;;24.65;39.60
16613;BME280;8419;52.358;9.752;2023-07-20T01:19:01;100593.00;;;24.67;39.56
16613;BME280;8419;52.358;9.752;2023-07-20T01:21:51;100594.00;;;24.66;39.56
16613;BME280;8419;52.358;9.752;2023-07-20T01:24:55;100605.00;;;24.63;39.63
16613;BME280;8419;52.358;9.752;2023-07-20T01:31:21;100599.00;;;24.63;39.67
16613;BME280;8419;52.358;9.752;2023-07-20T01:34:18;100597.00;;;24.57;39.72
16613;BME280;8419;52.358;9.752;2023-07-20T01:37:05;100593.00;;;24.56;39.75
16613;BME280;8419;52.358;9.752;2023-07-20T01:39:52;100600.00;;;24.62;39.70
16613;BME280;8419;52.358;9.752;2023-07-20T01:42:44;100597.00;;;24.68;39.64
16613;BME280;8419;52.358;9.752;2023-07-20T01:45:30;100596.00;;;24.70;39.72
16613;BME280;8419;52.358;9.752;2023-07-20T01:48:17;100597.00;;;24.84;39.52
16613;BME280;8419;52.358;9.752;2023-07-20T01:51:02;100595.00;;;24.89;39.50
16613;BME280;8419;52.358;9.752;2023-07-20T01:53:48;100600.00;;;24.92;39.48
16613;BME280;8419;52.358;9.752;2023-07-20T01:56:33;100605.00;;;24.79;39.80
16613;BME280;8419;52.358;9.752;2023-07-20T01:59:19;100596.00;;;24.75;39.86
16613;BME280;8419;52.358;9.752;2023-07-20T02:02:05;100602.00;;;24.74;39.93
16613;BME280;8419;52.358;9.752;2023-07-20T02:04:51;100599.00;;;24.75;39.96
16613;BME280;8419;52.358;9.752;2023-07-20T02:07:36;100601.00;;;24.75;40.03
16613;BME280;8419;52.358;9.752;2023-07-20T02:10:22;100591.00;;;24.78;40.07
16613;BME280;8419;52.358;9.752;2023-07-20T02:13:08;100590.00;;;24.80;40.02
16613;BME280;8419;52.358;9.752;2023-07-20T02:15:54;100594.00;;;24.78;40.00
16613;BME280;8419;52.358;9.752;2023-07-20T02:18:39;100585.00;;;24.69;40.10
16613;BME280;8419;52.358;9.752;2023-07-20T02:21:25;100584.00;;;24.62;40.19
16613;BME280;8419;52.358;9.752;2023-07-20T02:24:11;100585.00;;;24.54;40.26
16613;BME280;8419;52.358;9.752;2023-07-20T02:26:57;100595.00;;;24.57;40.17
16613;BME280;8419;52.358;9.752;2023-07-20T02:29:42;100591.00;;;24.58;40.12
16613;BME280;8419;52.358;9.752;2023-07-20T02:32:29;100598.00;;;24.59;40.14
16613;BME280;8419;52.358;9.752;2023-07-20T02:35:15;100591.00;;;24.48;40.33
16613;BME280;8419;52.358;9.752;2023-07-20T02:38:02;100594.00;;;24.45;40.33
16613;BME280;8419;52.358;9.752;2023-07-20T02:40:48;100602.00;;;24.45;40.34
16613;BME280;8419;52.358;9.752;2023-07-20T02:43:34;100603.00;;;24.42;40.39
16613;BME280;8419;52.358;9.752;2023-07-20T02:46:20;100605.00;;;24.45;40.30
16613;BME280;8419;52.358;9.752;2023-07-20T02:49:06;100600.00;;;24.50;40.20
16613;BME280;8419;52.358;9.752;2023-07-20T02:51:52;100601.00;;;24.55;40.17
16613;BME280;8419;52.358;9.752;2023-07-20T02:54:38;100596.00;;;24.54;40.23
16613;BME280;8419;52.358;9.752;2023-07-20T02:57:24;100602.00;;;24.61;40.15
16613;BME280;8419;52.358;9.752;2023-07-20T03:00:12;100609.00;;;24.72;39.97
16613;BME280;8419;52.358;9.752;2023-07-20T03:03:04;100598.00;;;24.75;39.97
16613;BME280;8419;52.358;9.752;2023-07-20T03:05:51;100605.00;;;24.82;39.91
16613;BME280;8419;52.358;9.752;2023-07-20T03:08:39;100602.00;;;24.87;39.82
16613;BME280;8419;52.358;9.752;2023-07-20T03:11:26;100602.00;;;24.92;39.80
16613;BME280;8419;52.358;9.752;2023-07-20T03:14:12;100607.00;;;25.00;39.76
16613;BME280;8419;52.358;9.752;2023-07-20T03:16:57;100598.00;;;25.01;39.74
16613;BME280;8419;52.358;9.752;2023-07-20T03:19:43;100608.00;;;25.08;39.67
16613;BME280;8419;52.358;9.752;2023-07-20T03:22:28;100611.00;;;25.09;39.69
16613;BME280;8419;52.358;9.752;2023-07-20T03:25:15;100615.00;;;25.16;39.63
16613;BME280;8419;52.358;9.752;2023-07-20T03:28:00;100608.00;;;25.22;39.62
16613;BME280;8419;52.358;9.752;2023-07-20T03:30:46;100605.00;;;25.21;39.63
16613;BME280;8419;52.358;9.752;2023-07-20T03:33:32;100603.00;;;25.23;39.69
16613;BME280;8419;52.358;9.752;2023-07-20T03:36:18;100606.00;;;25.32;39.68
16613;BME280;8419;52.358;9.752;2023-07-20T03:39:05;100609.00;;;25.39;39.59
16613;BME280;8419;52.358;9.752;2023-07-20T03:41:52;100613.00;;;25.47;39.51
16613;BME280;8419;52.358;9.752;2023-07-20T03:44:37;100615.00;;;25.37;39.69
16613;BME280;8419;52.358;9.752;2023-07-20T03:47:23;100607.00;;;25.39;39.62
16613;BME280;8419;52.358;9.752;2023-07-20T03:50:11;100601.00;;;25.37;39.58
16613;BME280;8419;52.358;9.752;2023-07-20T03:52:56;100600.00;;;25.37;39.61
16613;BME280;8419;52.358;9.752;2023-07-20T03:55:42;100604.00;;;25.42;39.48
16613;BME280;8419;52.358;9.752;2023-07-20T03:58:29;100602.00;;;25.38;39.51
16613;BME280;8419;52.358;9.752;2023-07-20T04:01:15;100602.00;;;25.35;39.58
16613;BME280;8419;52.358;9.752;2023-07-20T04:04:01;100608.00;;;25.38;39.52
16613;BME280;8419;52.358;9.752;2023-07-20T04:06:47;100610.00;;;25.28;39.66
16613;BME280;8419;52.358;9.752;2023-07-20T04:09:33;100607.00;;;25.26;39.64
16613;BME280;8419;52.358;9.752;2023-07-20T04:12:18;100611.00;;;25.28;39.59
16613;BME280;8419;52.358;9.752;2023-07-20T04:15:06;100615.00;;;25.37;39.48
16613;BME280;8419;52.358;9.752;2023-07-20T04:17:51;100618.00;;;25.44;39.35
16613;BME280;8419;52.358;9.752;2023-07-20T04:20:37;100627.00;;;25.38;39.52
16613;BME280;8419;52.358;9.752;2023-07-20T04:23:23;100624.00;;;25.26;39.82
16613;BME280;8419;52.358;9.752;2023-07-20T04:26:09;100637.00;;;25.21;39.92
16613;BME280;8419;52.358;9.752;2023-07-20T04:28:57;100632.00;;;24.89;40.47
16613;BME280;8419;52.358;9.752;2023-07-20T04:31:45;100630.00;;;24.73;40.72
16613;BME280;8419;52.358;9.752;2023-07-20T04:34:31;100639.00;;;24.61;40.90
16613;BME280;8419;52.358;9.752;2023-07-20T04:37:17;100640.00;;;24.55;41.03
16613;BME280;8419;52.358;9.752;2023-07-20T04:40:05;100643.00;;;24.50;41.04
16613;BME280;8419;52.358;9.752;2023-07-20T04:42:51;100638.00;;;24.38;41.29
16613;BME280;8419;52.358;9.752;2023-07-20T04:45:37;100646.00;;;24.28;41.46
16613;BME280;8419;52.358;9.752;2023-07-20T04:48:22;100643.00;;;24.20;41.60
16613;BME280;8419;52.358;9.752;2023-07-20T04:51:08;100640.00;;;24.16;41.62
16613;BME280;8419;52.358;9.752;2023-07-20T04:53:55;100650.00;;;24.09;41.82
16613;BME280;8419;52.358;9.752;2023-07-20T04:56:41;100645.00;;;24.06;41.93
16613;BME280;8419;52.358;9.752;2023-07-20T04:59:27;100648.00;;;24.05;42.10
16613;BME280;8419;52.358;9.752;2023-07-20T05:02:12;100641.00;;;24.16;41.97
16613;BME280;8419;52.358;9.752;2023-07-20T05:04:58;100649.00;;;24.38;41.70
16613;BME280;8419;52.358;9.752;2023-07-20T05:07:44;100651.00;;;24.29;42.00
16613;BME280;8419;52.358;9.752;2023-07-20T05:10:30;100646.00;;;24.34;42.07
16613;BME280;8419;52.358;9.752;2023-07-20T05:13:15;100650.00;;;24.27;42.24
16613;BME280;8419;52.358;9.752;2023-07-20T05:16:01;100654.00;;;24.24;42.50
16613;BME280;8419;52.358;9.752;2023-07-20T05:18:48;100655.00;;;24.31;42.44
16613;BME280;8419;52.358;9.752;2023-07-20T05:21:33;100650.00;;;24.30;42.72
16613;BME280;8419;52.358;9.752;2023-07-20T05:24:19;100660.00;;;24.36;42.70
16613;BME280;8419;52.358;9.752;2023-07-20T05:27:05;100661.00;;;24.40;42.76
16613;BME280;8419;52.358;9.752;2023-07-20T05:29:51;100664.00;;;24.35;42.93
16613;BME280;8419;52.358;9.752;2023-07-20T05:32:37;100667.00;;;24.45;42.79
16613;BME280;8419;52.358;9.752;2023-07-20T05:35:23;100656.00;;;24.48;42.74
16613;BME280;8419;52.358;9.752;2023-07-20T05:38:11;100660.00;;;24.47;42.86
16613;BME280;8419;52.358;9.752;2023-07-20T05:41:00;100662.00;;;24.42;42.93
16613;BME280;8419;52.358;9.752;2023-07-20T05:43:48;100669.00;;;24.49;42.88
16613;BME280;8419;52.358;9.752;2023-07-20T05:46:34;100670.00;;;24.55;42.88
16613;BME280;8419;52.358;9.752;2023-07-20T05:49:21;100677.00;;;24.54;42.88
16613;BME280;8419;52.358;9.752;2023-07-20T05:52:08;100675.00;;;24.50;43.01
16613;BME280;8419;52.358;9.752;2023-07-20T05:54:54;100673.00;;;24.59;42.89
16613;BME280;8419;52.358;9.752;2023-07-20T05:57:40;100681.00;;;24.57;42.94
16613;BME280;8419;52.358;9.752;2023-07-20T06:00:28;100685.00;;;24.58;43.01
16613;BME280;8419;52.358;9.752;2023-07-20T06:03:14;100678.00;;;24.61;42.96
16613;BME280;8419;52.358;9.752;2023-07-20T06:06:03;100679.00;;;24.61;42.96
16613;BME280;8419;52.358;9.752;2023-07-20T06:08:52;100676.00;;;24.67;42.91
16613;BME280;8419;52.358;9.752;2023-07-20T06:11:37;100673.00;;;24.74;42.93
16613;BME280;8419;52.358;9.752;2023-07-20T06:14:23;100675.00;;;24.93;42.72
16613;BME280;8419;52.358;9.752;2023-07-20T06:17:09;100672.00;;;25.11;42.55
16613;BME280;8419;52.358;9.752;2023-07-20T06:19:54;100680.00;;;25.21;42.40
16613;BME280;8419;52.358;9.752;2023-07-20T06:22:40;100684.00;;;25.33;42.22
16613;BME280;8419;52.358;9.752;2023-07-20T06:25:27;100686.00;;;25.46;42.05
16613;BME280;8419;52.358;9.752;2023-07-20T06:28:14;100676.00;;;25.48;42.03
16613;BME280;8419;52.358;9.752;2023-07-20T06:31:01;100682.00;;;25.60;41.92
16613;BME280;8419;52.358;9.752;2023-07-20T06:33:46;100677.00;;;25.76;41.67
16613;BME280;8419;52.358;9.752;2023-07-20T06:36:32;100678.00;;;25.85;41.49
16613;BME280;8419;52.358;9.752;2023-07-20T06:39:31;100672.00;;;25.94;41.34
16613;BME280;8419;52.358;9.752;2023-07-20T06:42:17;100683.00;;;25.91;41.39
16613;BME280;8419;52.358;9.752;2023-07-20T06:45:03;100693.00;;;25.94;41.27
16613;BME280;8419;52.358;9.752;2023-07-20T06:47:51;100706.00;;;25.95;41.24
16613;BME280;8419;52.358;9.752;2023-07-20T06:50:37;100702.00;;;25.78;41.37
16613;BME280;8419;52.358;9.752;2023-07-20T06:53:22;100709.00;;;25.64;41.51
16613;BME280;8419;52.358;9.752;2023-07-20T06:56:09;100709.00;;;25.66;41.47
16613;BME280;8419;52.358;9.752;2023-07-20T06:58:54;100711.00;;;25.64;41.67
16613;BME280;8419;52.358;9.752;2023-07-20T07:01:40;100710.00;;;25.98;41.26
16613;BME280;8419;52.358;9.752;2023-07-20T07:04:26;100715.00;;;26.17;40.92
16613;BME280;8419;52.358;9.752;2023-07-20T07:07:12;100708.00;;;26.06;41.00
16613;BME280;8419;52.358;9.752;2023-07-20T07:09:58;100716.00;;;26.07;41.13
16613;BME280;8419;52.358;9.752;2023-07-20T07:12:44;100722.00;;;26.34;40.64
16613;BME280;8419;52.358;9.752;2023-07-20T07:15:29;100718.00;;;26.54;40.18
16613;BME280;8419;52.358;9.752;2023-07-20T07:18:15;100714.00;;;26.49;40.12
16613;BME280;8419;52.358;9.752;2023-07-20T07:21:01;100718.00;;;26.51;40.07
16613;BME280;8419;52.358;9.752;2023-07-20T07:23:47;100712.00;;;26.44;40.13
16613;BME280;8419;52.358;9.752;2023-07-20T07:26:33;100720.00;;;26.36;39.86
16613;BME280;8419;52.358;9.752;2023-07-20T07:29:18;100721.00;;;26.12;40.16
16613;BME280;8419;52.358;9.752;2023-07-20T07:32:06;100712.00;;;26.13;40.17
16613;BME280;8419;52.358;9.752;2023-07-20T07:34:52;100710.00;;;26.22;40.02
16613;BME280;8419;52.358;9.752;2023-07-20T07:37:38;100707.00;;;26.43;39.76
16613;BME280;8419;52.358;9.752;2023-07-20T07:40:24;100713.00;;;26.71;39.27
16613;BME280;8419;52.358;9.752;2023-07-20T07:43:10;100721.00;;;26.82;39.01
16613;BME280;8419;52.358;9.752;2023-07-20T07:45:57;100724.00;;;26.78;38.68
16613;BME280;8419;52.358;9.752;2023-07-20T07:48:43;100727.00;;;26.84;38.32
16613;BME280;8419;52.358;9.752;2023-07-20T07:51:29;100725.00;;;26.91;38.26
16613;BME280;8419;52.358;9.752;2023-07-20T07:54:15;100721.00;;;26.99;37.89
16613;BME280;8419;52.358;9.752;2023-07-20T07:57:01;100732.00;;;27.05;37.68
16613;BME280;8419;52.358;9.752;2023-07-20T07:59:47;100734.00;;;27.19;37.78
16613;BME280;8419;52.358;9.752;2023-07-20T08:02:32;100741.00;;;27.20;37.57
16613;BME280;8419;52.358;9.752;2023-07-20T08:05:18;100731.00;;;27.00;37.75
16613;BME280;8419;52.358;9.752;2023-07-20T08:08:05;100742.00;;;26.83;37.71
16613;BME280;8419;52.358;9.752;2023-07-20T08:10:58;100737.00;;;26.63;37.63
16613;BME280;8419;52.358;9.752;2023-07-20T08:13:44;100744.00;;;26.59;37.50
16613;BME280;8419;52.358;9.752;2023-07-20T08:16:30;100744.00;;;26.78;37.38
16613;BME280;8419;52.358;9.752;2023-07-20T08:19:15;100742.00;;;27.08;36.90
16613;BME280;8419;52.358;9.752;2023-07-20T08:22:01;100743.00;;;27.44;36.10
16613;BME280;8419;52.358;9.752;2023-07-20T08:24:46;100740.00;;;27.52;35.35
16613;BME280;8419;52.358;9.752;2023-07-20T08:27:32;100741.00;;;27.53;34.45
16613;BME280;8419;52.358;9.752;2023-07-20T08:30:22;100742.00;;;27.53;34.26
16613;BME280;8419;52.358;9.752;2023-07-20T08:33:10;100746.00;;;27.54;34.08
16613;BME280;8419;52.358;9.752;2023-07-20T08:35:57;100748.00;;;27.57;34.11
16613;BME280;8419;52.358;9.752;2023-07-20T08:38:42;100748.00;;;27.44;34.44
16613;BME280;8419;52.358;9.752;2023-07-20T08:41:28;100750.00;;;27.16;34.61
16613;BME280;8419;52.358;9.752;2023-07-20T08:44:14;100759.00;;;27.00;34.79
16613;BME280;8419;52.358;9.752;2023-07-20T08:47:02;100749.00;;;27.19;34.72
16613;BME280;8419;52.358;9.752;2023-07-20T08:49:49;100758.00;;;27.29;34.03
16613;BME280;8419;52.358;9.752;2023-07-20T08:52:36;100752.00;;;27.48;33.97
16613;BME280;8419;52.358;9.752;2023-07-20T08:55:22;100750.00;;;27.76;33.45
16613;BME280;8419;52.358;9.752;2023-07-20T08:58:12;100751.00;;;27.98;33.35
16613;BME280;8419;52.358;9.752;2023-07-20T09:01:00;100756.00;;;28.43;32.84
16613;BME280;8419;52.358;9.752;2023-07-20T09:03:48;100754.00;;;28.68;31.93
16613;BME280;8419;52.358;9.752;2023-07-20T09:06:38;100756.00;;;28.65;31.26
16613;BME280;8419;52.358;9.752;2023-07-20T09:09:24;100752.00;;;28.48;30.78
16613;BME280;8419;52.358;9.752;2023-07-20T09:12:14;100751.00;;;28.32;31.12
16613;BME280;8419;52.358;9.752;2023-07-20T09:15:00;100744.00;;;28.33;31.34
16613;BME280;8419;52.358;9.752;2023-07-20T09:17:47;100749.00;;;28.36;30.92
16613;BME280;8419;52.358;9.752;2023-07-20T09:20:34;100752.00;;;28.28;30.75
16613;BME280;8419;52.358;9.752;2023-07-20T09:23:30;100750.00;;;28.46;30.86
16613;BME280;8419;52.358;9.752;2023-07-20T09:26:17;100742.00;;;29.07;30.45
16613;BME280;8419;52.358;9.752;2023-07-20T09:29:08;100745.00;;;29.42;30.17
16613;BME280;8419;52.358;9.752;2023-07-20T09:32:01;100738.00;;;29.31;29.92
16613;BME280;8419;52.358;9.752;2023-07-20T09:34:47;100750.00;;;28.96;30.04
16613;BME280;8419;52.358;9.752;2023-07-20T09:37:36;100744.00;;;28.88;30.12
16613;BME280;8419;52.358;9.752;2023-07-20T09:40:21;100742.00;;;28.92;29.85
16613;BME280;8419;52.358;9.752;2023-07-20T09:43:08;100746.00;;;29.21;29.37
16613;BME280;8419;52.358;9.752;2023-07-20T09:45:58;100747.00;;;29.28;28.56
16613;BME280;8419;52.358;9.752;2023-07-20T09:48:52;100745.00;;;28.96;28.03
16613;BME280;8419;52.358;9.752;2023-07-20T09:51:40;100746.00;;;28.83;28.60
16613;BME280;8419;52.358;9.752;2023-07-20T09:54:30;100753.00;;;29.14;28.46
16613;BME280;8419;52.358;9.752;2023-07-20T09:57:16;100744.00;;;29.13;28.48
16613;BME280;8419;52.358;9.752;2023-07-20T10:00:04;100740.00;;;28.92;28.70
16613;BME280;8419;52.358;9.752;2023-07-20T10:02:58;100744.00;;;28.93;28.75
16613;BME280;8419;52.358;9.752;2023-07-20T10:05:51;100741.00;;;29.17;28.08
16613;BME280;8419;52.358;9.752;2023-07-20T10:08:39;100752.00;;;29.57;27.45
16613;BME280;8419;52.358;9.752;2023-07-20T10:11:29;100740.00;;;29.52;27.39
16613;BME280;8419;52.358;9.752;2023-07-20T10:14:19;100746.00;;;29.45;27.41
16613;BME280;8419;52.358;9.752;2023-07-20T10:17:07;100744.00;;;29.56;27.25
16613;BME280;8419;52.358;9.752;2023-07-20T10:20:00;100748.00;;;29.63;27.16
16613;BME280;8419;52.358;9.752;2023-07-20T10:22:54;100749.00;;;29.62;27.02
16613;BME280;8419;52.358;9.752;2023-07-20T10:25:41;100748.00;;;29.86;26.71
16613;BME280;8419;52.358;9.752;2023-07-20T10:28:28;100744.00;;;30.13;26.39
16613;BME280;8419;52.358;9.752;2023-07-20T10:31:16;100740.00;;;30.34;25.92
16613;BME280;8419;52.358;9.752;2023-07-20T10:34:03;100733.00;;;30.44;25.85
16613;BME280;8419;52.358;9.752;2023-07-20T10:36:49;100735.00;;;30.44;25.62
16613;BME280;8419;52.358;9.752;2023-07-20T10:39:37;100738.00;;;30.44;25.44
16613;BME280;8419;52.358;9.752;2023-07-20T10:42:23;100735.00;;;30.18;25.77
16613;BME280;8419;52.358;9.752;2023-07-20T10:45:18;100741.00;;;30.13;25.98
16613;BME280;8419;52.358;9.752;2023-07-20T10:48:05;100742.00;;;30.02;26.07
16613;BME280;8419;52.358;9.752;2023-07-20T10:51:10;100736.00;;;29.90;26.08
16613;BME280;8419;52.358;9.752;2023-07-20T10:53:57;100735.00;;;30.06;25.84
16613;BME280;8419;52.358;9.752;2023-07-20T10:56:46;100738.00;;;30.23;25.50
16613;BME280;8419;52.358;9.752;2023-07-20T10:59:39;100725.00;;;30.55;25.32
16613;BME280;8419;52.358;9.752;2023-07-20T11:02:24;100734.00;;;30.51;25.39
16613;BME280;8419;52.358;9.752;2023-07-20T11:05:32;100740.00;;;30.44;25.34
16613;BME280;8419;52.358;9.752;2023-07-20T11:08:39;100738.00;;;30.39;25.45
16613;BME280;8419;52.358;9.752;2023-07-20T11:11:28;100740.00;;;30.04;25.81
16613;BME280;8419;52.358;9.752;2023-07-20T11:14:23;100731.00;;;30.09;25.94
16613;BME280;8419;52.358;9.752;2023-07-20T11:17:12;100734.00;;;30.27;25.90
16613;BME280;8419;52.358;9.752;2023-07-20T11:20:01;100733.00;;;30.41;25.91
16613;BME280;8419;52.358;9.752;2023-07-20T11:22:48;100738.00;;;30.69;25.74
16613;BME280;8419;52.358;9.752;2023-07-20T11:25:38;100741.00;;;30.76;25.38
16613;BME280;8419;52.358;9.752;2023-07-20T11:28:24;100746.00;;;30.70;25.20
16613;BME280;8419;52.358;9.752;2023-07-20T11:31:10;100745.00;;;30.78;25.12
16613;BME280;8419;52.358;9.752;2023-07-20T11:34:01;100739.00;;;30.66;25.13
16613;BME280;8419;52.358;9.752;2023-07-20T11:36:49;100730.00;;;30.70;25.25
16613;BME280;8419;52.358;9.752;2023-07-20T11:39:36;100732.00;;;30.82;25.36
16613;BME280;8419;52.358;9.752;2023-07-20T11:42:22;100747.00;;;31.20;25.15
16613;BME280;8419;52.358;9.752;2023-07-20T11:45:09;100734.00;;;31.25;24.98
16613;BME280;8419;52.358;9.752;2023-07-20T11:47:55;100740.00;;;30.86;25.36
16613;BME280;8419;52.358;9.752;2023-07-20T11:50:43;100739.00;;;30.69;25.23
16613;BME280;8419;52.358;9.752;2023-07-20T11:53:29;100737.00;;;30.47;25.33
16613;BME280;8419;52.358;9.752;2023-07-20T11:56:15;100744.00;;;30.49;25.35
16613;BME280;8419;52.358;9.752;2023-07-20T11:59:01;100732.00;;;30.80;25.16
16613;BME280;8419;52.358;9.752;2023-07-20T12:01:48;100726.00;;;31.37;24.64
16613;BME280;8419;52.358;9.752;2023-07-20T12:04:34;100730.00;;;31.59;24.42
16613;BME280;8419;52.358;9.752;2023-07-20T12:07:20;100737.00;;;31.90;24.14
16613;BME280;8419;52.358;9.752;2023-07-20T12:10:07;100727.00;;;32.00;23.75
16613;BME280;8419;52.358;9.752;2023-07-20T12:12:53;100717.00;;;32.24;23.29
16613;BME280;8419;52.358;9.752;2023-07-20T12:15:39;100724.00;;;32.19;23.10
16613;BME280;8419;52.358;9.752;2023-07-20T12:18:35;100723.00;;;32.34;22.78
16613;BME280;8419;52.358;9.752;2023-07-20T12:21:21;100723.00;;;32.86;22.20
16613;BME280;8419;52.358;9.752;2023-07-20T12:24:10;100726.00;;;32.89;21.68
16613;BME280;8419;52.358;9.752;2023-07-20T12:26:57;100710.00;;;32.55;22.03
16613;BME280;8419;52.358;9.752;2023-07-20T12:29:44;100719.00;;;32.37;22.37
16613;BME280;8419;52.358;9.752;2023-07-20T12:32:31;100719.00;;;32.32;22.47
16613;BME280;8419;52.358;9.752;2023-07-20T12:35:16;100709.00;;;31.99;22.67
16613;BME280;8419;52.358;9.752;2023-07-20T12:38:02;100719.00;;;31.71;22.92
16613;BME280;8419;52.358;9.752;2023-07-20T12:40:48;100722.00;;;31.91;22.81
16613;BME280;8419;52.358;9.752;2023-07-20T12:43:34;100713.00;;;31.81;22.81
16613;BME280;8419;52.358;9.752;2023-07-20T12:46:20;100711.00;;;32.19;22.66
16613;BME280;8419;52.358;9.752;2023-07-20T12:49:07;100715.00;;;33.09;21.98
16613;BME280;8419;52.358;9.752;2023-07-20T12:51:53;100714.00;;;34.31;21.20
16613;BME280;8419;52.358;9.752;2023-07-20T12:54:39;100711.00;;;35.02;20.19
16613;BME280;8419;52.358;9.752;2023-07-20T12:57:26;100700.00;;;35.22;20.17
16613;BME280;8419;52.358;9.752;2023-07-20T13:00:15;100708.00;;;35.72;19.53
16613;BME280;8419;52.358;9.752;2023-07-20T13:03:03;100705.00;;;35.07;19.96
16613;BME280;8419;52.358;9.752;2023-07-20T13:05:50;100712.00;;;34.06;20.65
16613;BME280;8419;52.358;9.752;2023-07-20T13:08:35;100699.00;;;33.21;21.42
16613;BME280;8419;52.358;9.752;2023-07-20T13:11:21;100705.00;;;32.76;21.98
16613;BME280;8419;52.358;9.752;2023-07-20T13:14:07;100708.00;;;32.48;22.09
16613;BME280;8419;52.358;9.752;2023-07-20T13:16:55;100706.00;;;32.34;22.25
16613;BME280;8419;52.358;9.752;2023-07-20T13:19:40;100700.00;;;33.00;21.74
16613;BME280;8419;52.358;9.752;2023-07-20T13:22:26;100705.00;;;34.20;20.31
16613;BME280;8419;52.358;9.752;2023-07-20T13:25:17;100705.00;;;33.57;20.38
16613;BME280;8419;52.358;9.752;2023-07-20T13:28:05;100698.00;;;33.22;20.63
16613;BME280;8419;52.358;9.752;2023-07-20T13:30:54;100708.00;;;34.54;19.54
16613;BME280;8419;52.358;9.752;2023-07-20T13:33:43;100704.00;;;34.73;18.97
16613;BME280;8419;52.358;9.752;2023-07-20T13:36:31;100700.00;;;34.11;19.37
16613;BME280;8419;52.358;9.752;2023-07-20T13:39:19;100704.00;;;33.17;20.07
16613;BME280;8419;52.358;9.752;2023-07-20T13:42:07;100708.00;;;32.43;20.80
16613;BME280;8419;52.358;9.752;2023-07-20T13:44:55;100705.00;;;31.97;21.18
16613;BME280;8419;52.358;9.752;2023-07-20T13:47:40;100714.00;;;31.58;21.43
16613;BME280;8419;52.358;9.752;2023-07-20T13:50:31;100706.00;;;31.25;21.83
16613;BME280;8419;52.358;9.752;2023-07-20T13:53:17;100715.00;;;30.89;22.36
16613;BME280;8419;52.358;9.752;2023-07-20T13:56:08;100725.00;;;30.66;22.84
16613;BME280;8419;52.358;9.752;2023-07-20T13:58:55;100714.00;;;30.31;23.52
16613;BME280;8419;52.358;9.752;2023-07-20T14:01:46;100720.00;;;30.90;23.30
16613;BME280;8419;52.358;9.752;2023-07-20T14:04:33;100714.00;;;33.30;21.19
16613;BME280;8419;52.358;9.752;2023-07-20T14:07:19;100716.00;;;35.37;19.41
16613;BME280;8419;52.358;9.752;2023-07-20T14:10:06;100709.00;;;37.11;18.13
16613;BME280;8419;52.358;9.752;2023-07-20T14:12:52;100709.00;;;39.39;16.69
16613;BME280;8419;52.358;9.752;2023-07-20T14:15:38;100711.00;;;40.60;15.77
16613;BME280;8419;52.358;9.752;2023-07-20T14:18:25;100701.00;;;39.62;16.23
16613;BME280;8419;52.358;9.752;2023-07-20T14:21:10;100711.00;;;38.03;17.23
16613;BME280;8419;52.358;9.752;2023-07-20T14:23:58;100703.00;;;37.42;17.66
16613;BME280;8419;52.358;9.752;2023-07-20T14:26:49;100705.00;;;37.09;17.95
16613;BME280;8419;52.358;9.752;2023-07-20T14:29:38;100708.00;;;37.34;17.88
16613;BME280;8419;52.358;9.752;2023-07-20T14:32:27;100698.00;;;38.15;17.38
16613;BME280;8419;52.358;9.752;2023-07-20T14:35:14;100698.00;;;37.43;18.01
16613;BME280;8419;52.358;9.752;2023-07-20T14:38:01;100702.00;;;37.43;17.91
16613;BME280;8419;52.358;9.752;2023-07-20T14:40:47;100693.00;;;36.95;18.15
16613;BME280;8419;52.358;9.752;2023-07-20T14:43:32;100691.00;;;36.27;18.68
16613;BME280;8419;52.358;9.752;2023-07-20T14:46:18;100689.00;;;34.92;19.58
16613;BME280;8419;52.358;9.752;2023-07-20T14:49:05;100699.00;;;34.12;20.28